Time;durP1;ratioP1;P1;durP2;ratioP2;P2;SDS_P1;SDS_P2;PMS_P1;PMS_P2;Temp;Humidity;BMP_temperature;BMP_pressure;BME280_temperature;BME280_humidity;BME280_pressure;Samples;Min_cycle;Max_cycle;Signal;HPM_P1;HPM_P2
2022/02/15 00:00:44;;;;;;;49.10;31.38;;;5.80;99.90;;;;;;5175011;27;20045;-71
2022/02/15 00:03:12;;;;;;;94.65;49.72;;;5.60;99.90;;;;;;5173443;27;20126;-74
2022/02/15 00:05:39;;;;;;;48.72;31.35;;;6.20;99.90;;;;;;5173738;27;20049;-71
2022/02/15 00:08:06;;;;;;;46.33;28.40;;;6.20;99.90;;;;;;5154978;27;20159;-71
2022/02/15 00:10:34;;;;;;;42.67;27.27;;;5.60;99.90;;;;;;5174236;27;20061;-71
2022/02/15 00:13:03;;;;;;;47.08;27.15;;;5.80;99.90;;;;;;5173557;27;20034;-70
2022/02/15 00:15:30;;;;;;;47.00;26.13;;;6.00;99.90;;;;;;5173967;27;20042;-72
2022/02/15 00:17:58;;;;;;;48.00;26.80;;;6.30;99.90;;;;;;5174506;27;20402;-70
2022/02/15 00:20:27;;;;;;;42.90;26.38;;;6.30;99.90;;;;;;5174511;27;20410;-70
2022/02/15 00:22:54;;;;;;;42.00;26.77;;;6.20;99.90;;;;;;5173615;27;20049;-70
2022/02/15 00:25:22;;;;;;;44.75;27.15;;;6.20;99.90;;;;;;5173073;27;20494;-70
2022/02/15 00:27:50;;;;;;;40.40;26.85;;;6.00;99.90;;;;;;5173836;27;20045;-71
2022/02/15 00:30:18;;;;;;;46.53;26.70;;;5.90;99.90;;;;;;5173922;27;20531;-75
2022/02/15 00:32:45;;;;;;;35.22;19.73;;;5.80;99.90;;;;;;5173286;27;20049;-69
2022/02/15 00:35:13;;;;;;;29.20;19.83;;;5.20;99.90;;;;;;5173862;27;20041;-70
2022/02/15 00:37:40;;;;;;;42.75;22.70;;;4.90;99.90;;;;;;5155128;27;20042;-72
2022/02/15 00:40:09;;;;;;;41.70;22.75;;;4.90;99.90;;;;;;5173321;27;20034;-69
2022/02/15 00:42:37;;;;;;;44.28;23.65;;;4.80;99.90;;;;;;5155557;27;20506;-71
2022/02/15 00:45:05;;;;;;;304.48;99.07;;;5.20;99.90;;;;;;5173414;27;20125;-72
2022/02/15 00:47:33;;;;;;;202.48;91.15;;;5.20;99.90;;;;;;5174066;27;20386;-70
2022/02/15 00:50:01;;;;;;;44.08;26.88;;;5.00;99.90;;;;;;5173611;27;20497;-71
2022/02/15 00:52:28;;;;;;;43.60;27.80;;;5.00;99.90;;;;;;5173863;27;20045;-73
2022/02/15 00:54:55;;;;;;;39.30;25.42;;;5.20;99.90;;;;;;5173406;27;20038;-69
2022/02/15 00:57:23;;;;;;;37.58;25.30;;;5.50;99.90;;;;;;5173314;27;20045;-74
2022/02/15 00:59:51;;;;;;;37.42;22.15;;;5.40;99.90;;;;;;5173538;27;20494;-69
2022/02/15 01:02:19;;;;;;;32.58;21.35;;;5.50;99.90;;;;;;5173524;27;20209;-70
2022/02/15 01:04:46;;;;;;;35.33;19.88;;;5.60;99.90;;;;;;5172754;27;20038;-73
2022/02/15 01:07:13;;;;;;;33.95;20.75;;;5.20;99.90;;;;;;5173484;27;20041;-75
2022/02/15 01:09:41;;;;;;;31.80;21.02;;;4.70;99.90;;;;;;5173600;27;20046;-73
2022/02/15 01:12:09;;;;;;;31.60;19.98;;;4.90;99.90;;;;;;5173514;27;20035;-69
2022/02/15 01:14:37;;;;;;;28.65;19.67;;;4.90;99.90;;;;;;5173079;27;20063;-73
2022/02/15 01:17:05;;;;;;;29.75;19.15;;;4.90;99.90;;;;;;5173715;27;20042;-75
2022/02/15 01:19:32;;;;;;;37.40;20.23;;;4.90;99.90;;;;;;5173459;27;20046;-72
2022/02/15 01:22:00;;;;;;;32.97;21.50;;;4.70;99.90;;;;;;5172382;27;20046;-69
2022/02/15 01:24:27;;;;;;;33.72;20.63;;;4.60;99.90;;;;;;5173381;27;20391;-71
2022/02/15 01:26:54;;;;;;;32.20;20.95;;;4.60;99.90;;;;;;5173805;27;20038;-69
2022/02/15 01:29:21;;;;;;;59.33;33.03;;;4.30;99.90;;;;;;5172470;27;20084;-68
2022/02/15 01:31:49;;;;;;;28.92;20.02;;;5.00;99.90;;;;;;5172779;27;20049;-71
2022/02/15 01:34:16;;;;;;;32.97;20.58;;;5.10;99.90;;;;;;5172623;27;20035;-70
2022/02/15 01:36:44;;;;;;;31.52;20.08;;;4.70;99.90;;;;;;5154570;27;20486;-67
2022/02/15 01:39:11;;;;;;;34.20;19.45;;;4.60;99.90;;;;;;5172378;27;20042;-70
2022/02/15 01:41:39;;;;;;;28.25;18.17;;;5.10;99.90;;;;;;5172159;27;20109;-69
2022/02/15 01:44:06;;;;;;;27.00;17.88;;;5.50;99.90;;;;;;5172347;27;20046;-69
2022/02/15 01:46:34;;;;;;;28.67;19.20;;;5.70;99.90;;;;;;5172078;27;20034;-69
2022/02/15 01:49:01;;;;;;;27.73;18.48;;;5.80;99.90;;;;;;5171911;27;20043;-70
2022/02/15 01:51:28;;;;;;;29.67;19.63;;;5.80;99.90;;;;;;5172334;27;20038;-68
2022/02/15 01:53:56;;;;;;;35.38;19.17;;;5.60;99.90;;;;;;5172560;27;20061;-68
2022/02/15 01:56:23;;;;;;;29.20;18.95;;;5.70;99.90;;;;;;5171992;27;20053;-70
2022/02/15 01:58:51;;;;;;;28.15;18.77;;;5.80;99.90;;;;;;5172611;27;20409;-71
2022/02/15 02:01:18;;;;;;;28.02;18.42;;;6.00;99.90;;;;;;5171948;27;20475;-67
2022/02/15 02:03:46;;;;;;;31.85;18.73;;;5.70;99.90;;;;;;5172096;27;20048;-70
2022/02/15 02:06:13;;;;;;;29.52;18.27;;;5.70;99.90;;;;;;5171877;27;20038;-74
2022/02/15 02:08:41;;;;;;;33.22;21.38;;;5.70;99.90;;;;;;5172806;27;20038;-71
2022/02/15 02:11:08;;;;;;;102.90;57.17;;;5.70;99.90;;;;;;5172371;27;20073;-68
2022/02/15 02:13:36;;;;;;;45.53;25.27;;;5.50;99.90;;;;;;5172650;27;20042;-66
2022/02/15 02:16:03;;;;;;;43.67;22.55;;;5.40;99.90;;;;;;5172535;27;20042;-70
2022/02/15 02:18:31;;;;;;;41.38;22.13;;;5.50;99.90;;;;;;5176129;27;20384;-68
2022/02/15 02:21:05;;;;;;;36.92;23.45;;;5.40;99.90;;;;;;5175385;27;20057;-70
2022/02/15 02:23:33;;;;;;;31.55;19.85;;;5.30;99.90;;;;;;5175582;27;20494;-72
2022/02/15 02:26:02;;;;;;;90.68;38.78;;;5.40;99.90;;;;;;5174900;27;20046;-70
2022/02/15 02:28:31;;;;;;;34.45;22.70;;;5.70;99.90;;;;;;5176305;27;20046;-70
2022/02/15 02:30:58;;;;;;;41.30;23.70;;;5.80;99.90;;;;;;5176072;27;20042;-71
2022/02/15 02:33:25;;;;;;;40.75;25.38;;;5.70;99.90;;;;;;5175594;27;20039;-68
2022/02/15 02:36:00;;;;;;;42.03;26.45;;;5.50;99.90;;;;;;5175142;27;20408;-68
2022/02/15 02:38:27;;;;;;;42.95;23.23;;;5.50;99.90;;;;;;5175565;27;20042;-70
2022/02/15 02:40:54;;;;;;;69.35;34.58;;;5.70;99.90;;;;;;5175899;27;20049;-69
2022/02/15 02:43:22;;;;;;;300.75;98.20;;;5.90;99.90;;;;;;5175582;27;20456;-69
2022/02/15 02:45:49;;;;;;;269.50;97.50;;;5.80;99.90;;;;;;5175330;27;20039;-70
2022/02/15 02:48:17;;;;;;;197.52;95.60;;;6.00;99.90;;;;;;5175297;27;20069;-70
2022/02/15 02:50:44;;;;;;;32.47;21.08;;;6.00;99.90;;;;;;5175257;27;20742;-68
2022/02/15 02:53:11;;;;;;;30.80;19.10;;;6.00;99.90;;;;;;5175212;27;20046;-68
2022/02/15 02:55:39;;;;;;;199.18;92.60;;;6.00;99.90;;;;;;5175085;27;20510;-69
2022/02/15 02:58:06;;;;;;;34.58;22.00;;;6.10;99.90;;;;;;5175013;27;20053;-67
2022/02/15 03:00:33;;;;;;;32.22;21.08;;;6.20;99.90;;;;;;5156413;27;20483;-68
2022/02/15 03:03:07;;;;;;;32.42;18.75;;;6.10;99.90;;;;;;5175311;27;20042;-74
2022/02/15 03:05:35;;;;;;;323.50;99.22;;;6.10;99.90;;;;;;5175502;27;20052;-67
2022/02/15 03:08:03;;;;;;;37.47;21.92;;;6.10;99.90;;;;;;5175807;27;20406;-73
2022/02/15 03:10:30;;;;;;;300.85;99.28;;;6.20;99.90;;;;;;5175718;27;20046;-72
2022/02/15 03:12:57;;;;;;;296.52;110.03;;;6.10;99.90;;;;;;5175626;27;20038;-67
2022/02/15 03:15:25;;;;;;;294.15;93.47;;;6.00;99.90;;;;;;5157252;27;20037;-70
2022/02/15 03:17:52;;;;;;;289.55;92.13;;;5.90;99.90;;;;;;5175704;27;20046;-74
2022/02/15 03:20:26;;;;;;;300.98;93.78;;;6.00;99.90;;;;;;5175542;27;20030;-70
2022/02/15 03:22:53;;;;;;;298.90;89.00;;;6.00;99.90;;;;;;5175167;27;20114;-74
2022/02/15 03:25:20;;;;;;;33.45;21.08;;;6.10;99.90;;;;;;5175388;27;20108;-69
2022/02/15 03:27:47;;;;;;;317.23;98.25;;;6.10;99.90;;;;;;5175250;27;20038;-72
2022/02/15 03:30:15;;;;;;;310.70;98.38;;;5.50;99.90;;;;;;5175373;27;20045;-71
2022/02/15 03:32:42;;;;;;;288.00;91.40;;;5.70;99.90;;;;;;5175049;27;20046;-69
2022/02/15 03:35:10;;;;;;;31.92;19.70;;;5.70;99.90;;;;;;5175305;27;20482;-73
2022/02/15 03:37:38;;;;;;;38.40;20.50;;;5.80;99.90;;;;;;5156717;27;20050;-70
2022/02/15 03:40:07;;;;;;;32.15;20.25;;;5.80;99.90;;;;;;5175452;27;20034;-72
2022/02/15 03:45:20;;;;;;;31.17;19.25;;;5.60;99.90;;;;;;5175272;27;20035;-71
2022/02/15 03:47:47;;;;;;;25.73;18.50;;;5.90;99.90;;;;;;5174971;27;20390;-69
2022/02/15 03:50:15;;;;;;;26.15;18.33;;;5.70;99.90;;;;;;5156575;27;20390;-69
2022/02/15 03:52:42;;;;;;;26.38;15.88;;;5.80;99.90;;;;;;5174678;27;20035;-71
2022/02/15 03:55:09;;;;;;;216.07;75.68;;;6.00;99.90;;;;;;5174470;27;20386;-70
2022/02/15 03:57:36;;;;;;;28.67;17.95;;;6.00;99.90;;;;;;5174625;27;20038;-70
2022/02/15 04:00:06;;;;;;;24.50;16.88;;;5.90;99.90;;;;;;5156854;27;20413;-71
2022/02/15 04:02:34;;;;;;;28.13;17.88;;;5.40;99.90;;;;;;5174679;27;20045;-72
2022/02/15 04:05:01;;;;;;;24.85;17.40;;;5.60;99.90;;;;;;5174415;27;20425;-72
2022/02/15 04:07:28;;;;;;;24.27;16.92;;;5.60;99.90;;;;;;5174749;27;20371;-70
2022/02/15 04:09:55;;;;;;;25.20;17.05;;;5.70;99.90;;;;;;5174588;27;20121;-74
2022/02/15 04:12:23;;;;;;;28.00;17.77;;;5.80;99.90;;;;;;5174392;27;20117;-70
2022/02/15 04:14:50;;;;;;;25.90;17.90;;;5.90;99.90;;;;;;5174235;27;20049;-70
2022/02/15 04:17:17;;;;;;;25.10;18.10;;;5.90;99.90;;;;;;5174678;27;20383;-70
2022/02/15 04:19:44;;;;;;;26.13;17.63;;;5.80;99.90;;;;;;5174351;27;20049;-71
2022/02/15 04:22:11;;;;;;;26.30;17.65;;;5.90;99.90;;;;;;5174418;27;20038;-68
2022/02/15 04:24:39;;;;;;;28.38;16.83;;;6.10;99.90;;;;;;5174428;27;20399;-72
2022/02/15 04:27:06;;;;;;;23.17;16.60;;;6.00;99.90;;;;;;5174133;27;20046;-70
2022/02/15 04:29:33;;;;;;;25.02;16.27;;;6.00;99.90;;;;;;5174351;27;20041;-71
2022/02/15 04:32:01;;;;;;;29.08;19.25;;;5.90;99.90;;;;;;5173815;27;20078;-69
2022/02/15 04:34:28;;;;;;;26.80;17.30;;;6.00;99.90;;;;;;5173744;27;20038;-70
2022/02/15 04:36:55;;;;;;;26.20;17.10;;;5.50;99.90;;;;;;5173802;27;20034;-69
2022/02/15 04:39:24;;;;;;;266.13;84.30;;;5.60;99.90;;;;;;5173711;27;20391;-71
2022/02/15 04:41:51;;;;;;;278.70;87.57;;;5.60;99.90;;;;;;5173755;27;20394;-70
2022/02/15 04:44:18;;;;;;;273.00;86.63;;;5.30;99.90;;;;;;5173819;27;20049;-71
2022/02/15 04:46:46;;;;;;;280.17;83.95;;;5.50;99.90;;;;;;5155490;27;20042;-78
2022/02/15 04:49:13;;;;;;;62.22;28.35;;;5.80;99.90;;;;;;5173797;27;20034;-70
2022/02/15 04:51:40;;;;;;;29.58;18.30;;;5.80;99.90;;;;;;5173449;27;20054;-72
2022/02/15 04:54:08;;;;;;;32.15;19.02;;;5.80;99.90;;;;;;5173521;27;20061;-75
2022/02/15 04:56:35;;;;;;;27.02;19.08;;;5.80;99.90;;;;;;5173474;27;20046;-71
2022/02/15 04:59:02;;;;;;;33.10;20.00;;;5.80;99.90;;;;;;5173731;27;20030;-71
2022/02/15 05:01:29;;;;;;;35.00;20.48;;;5.90;99.90;;;;;;5173677;27;20406;-74
2022/02/15 05:03:56;;;;;;;31.55;21.40;;;5.90;99.90;;;;;;5173156;27;20045;-72
2022/02/15 05:06:24;;;;;;;33.13;21.10;;;5.70;99.90;;;;;;5173893;27;20053;-72
2022/02/15 05:08:51;;;;;;;30.25;19.70;;;5.90;99.90;;;;;;5173353;27;20042;-71
2022/02/15 05:11:18;;;;;;;25.60;18.75;;;6.00;99.90;;;;;;5173388;27;20048;-72
2022/02/15 05:13:45;;;;;;;30.10;19.35;;;5.80;99.90;;;;;;5173215;27;20049;-73
2022/02/15 05:16:12;;;;;;;29.52;18.92;;;5.80;99.90;;;;;;5173228;27;20034;-78
2022/02/15 05:18:40;;;;;;;35.42;20.98;;;5.80;99.90;;;;;;5172411;27;20046;-72
2022/02/15 05:21:07;;;;;;;37.42;20.33;;;5.90;99.90;;;;;;5173467;27;20034;-71
2022/02/15 05:23:34;;;;;;;29.38;20.17;;;5.90;99.90;;;;;;5154757;27;20038;-71
2022/02/15 05:26:03;;;;;;;29.85;19.50;;;6.00;99.90;;;;;;5154922;27;20121;-73
2022/02/15 05:28:30;;;;;;;28.38;20.27;;;6.10;99.90;;;;;;5172990;27;20042;-71
2022/02/15 05:30:57;;;;;;;33.33;19.63;;;6.10;99.90;;;;;;5172622;27;20038;-70
2022/02/15 05:33:24;;;;;;;33.47;20.38;;;5.70;99.90;;;;;;5172302;27;20056;-70
2022/02/15 05:35:51;;;;;;;32.08;19.58;;;6.00;99.90;;;;;;5173273;27;20417;-70
2022/02/15 05:38:19;;;;;;;33.05;20.85;;;6.20;99.90;;;;;;5172942;27;20569;-70
2022/02/15 05:40:46;;;;;;;33.00;20.15;;;6.40;99.90;;;;;;5172440;27;20038;-74
2022/02/15 05:43:14;;;;;;;244.52;88.30;;;6.00;99.90;;;;;;5172628;27;20041;-70
2022/02/15 05:45:48;;;;;;;30.63;19.30;;;6.00;99.90;;;;;;5173031;27;20434;-73
2022/02/15 05:48:16;;;;;;;28.23;20.98;;;5.80;99.90;;;;;;5172509;27;20068;-72
2022/02/15 05:50:49;;;;;;;35.10;20.20;;;5.80;99.90;;;;;;5172580;27;20038;-73
2022/02/15 05:53:20;;;;;;;30.92;20.20;;;5.90;99.90;;;;;;5174240;27;20422;-71
2022/02/15 05:55:49;;;;;;;37.80;22.27;;;5.90;99.90;;;;;;5157924;27;20150;-74
2022/02/15 05:58:16;;;;;;;34.75;22.25;;;6.00;99.90;;;;;;5176018;27;20046;-70
2022/02/15 06:00:43;;;;;;;37.65;24.20;;;6.10;99.90;;;;;;5176303;27;20479;-70
2022/02/15 06:05:56;;;;;;;28.52;19.90;;;6.20;99.90;;;;;;5176565;27;20034;-73
2022/02/15 06:08:24;;;;;;;30.48;21.10;;;6.00;99.90;;;;;;5176173;27;20108;-69
2022/02/15 06:10:51;;;;;;;36.05;21.38;;;5.90;99.90;;;;;;5176086;27;20384;-71
2022/02/15 06:13:19;;;;;;;33.35;20.55;;;5.90;99.90;;;;;;5175628;27;20035;-71
2022/02/15 06:15:46;;;;;;;29.25;20.20;;;5.80;99.90;;;;;;5176368;27;20410;-71
2022/02/15 06:18:14;;;;;;;32.08;20.55;;;5.80;99.90;;;;;;5176352;27;20113;-70
2022/02/15 06:20:41;;;;;;;32.80;21.13;;;5.80;99.90;;;;;;5175412;27;20395;-67
2022/02/15 06:23:08;;;;;;;32.67;19.05;;;5.60;99.90;;;;;;5176049;27;20113;-73
2022/02/15 06:25:36;;;;;;;29.02;19.05;;;5.80;99.90;;;;;;5157468;27;20042;-72
2022/02/15 06:28:04;;;;;;;28.20;20.40;;;5.70;99.90;;;;;;5175219;27;20533;-72
2022/02/15 06:30:31;;;;;;;30.42;19.83;;;5.70;99.90;;;;;;5176004;27;20042;-70
2022/02/15 06:32:58;;;;;;;30.60;19.58;;;5.90;99.90;;;;;;5175774;27;20451;-72
2022/02/15 06:35:26;;;;;;;32.17;20.63;;;6.10;99.90;;;;;;5157276;27;20376;-74
2022/02/15 06:37:54;;;;;;;33.05;20.35;;;6.10;99.90;;;;;;5156963;27;20495;-73
2022/02/15 06:40:22;;;;;;;31.05;21.25;;;6.10;99.90;;;;;;5175244;27;20455;-77
2022/02/15 06:42:50;;;;;;;35.58;21.55;;;6.10;99.90;;;;;;5175260;27;20046;-68
2022/02/15 06:45:18;;;;;;;39.83;21.83;;;6.10;99.90;;;;;;5175400;27;20038;-75
2022/02/15 06:47:45;;;;;;;38.92;22.67;;;6.00;99.90;;;;;;5175845;27;20038;-75
2022/02/15 06:50:14;;;;;;;30.77;20.77;;;6.10;99.90;;;;;;5175508;27;20052;-68
2022/02/15 06:52:41;;;;;;;36.08;22.33;;;6.10;99.90;;;;;;5156769;27;20040;-71
2022/02/15 06:55:29;;;;;;;32.45;20.75;;;6.00;99.90;;;;;;5174931;27;20048;-75
2022/02/15 06:57:56;;;;;;;59.70;31.90;;;6.10;99.90;;;;;;5174413;27;20030;-68
2022/02/15 07:00:24;;;;;;;44.97;27.40;;;6.10;99.90;;;;;;5174570;27;20075;-74
2022/02/15 07:02:51;;;;;;;169.90;89.38;;;6.10;99.90;;;;;;5174030;27;20058;-71
2022/02/15 07:05:18;;;;;;;72.05;42.75;;;6.20;99.90;;;;;;5181761;27;20031;-70
2022/02/15 07:07:46;;;;;;;82.50;46.40;;;6.40;99.90;;;;;;5195533;27;20038;-72
2022/02/15 07:10:13;;;;;;;38.88;26.05;;;6.40;99.90;;;;;;5172107;27;20589;-74
2022/02/15 07:12:42;;;;;;;35.22;21.98;;;6.40;99.90;;;;;;5173592;27;20051;-73
2022/02/15 07:15:10;;;;;;;34.53;22.00;;;6.30;99.90;;;;;;5172343;27;20041;-72
2022/02/15 07:17:38;;;;;;;32.35;20.83;;;6.20;99.90;;;;;;5164251;27;20091;-69
2022/02/15 07:20:07;;;;;;;37.72;23.38;;;6.30;99.90;;;;;;5171371;27;20125;-70
2022/02/15 07:22:35;;;;;;;55.20;32.13;;;6.40;99.90;;;;;;5174245;27;20038;-73
2022/02/15 07:25:03;;;;;;;39.08;25.50;;;6.70;99.90;;;;;;5155830;27;20398;-70
2022/02/15 07:27:30;;;;;;;41.80;25.75;;;6.60;99.90;;;;;;5156010;27;20034;-71
2022/02/15 07:29:58;;;;;;;34.45;22.13;;;6.70;99.90;;;;;;5173494;27;20406;-70
2022/02/15 07:32:26;;;;;;;35.55;22.77;;;6.80;99.90;;;;;;5170949;27;20030;-70
2022/02/15 07:34:56;;;;;;;31.10;23.00;;;6.80;99.90;;;;;;5173382;27;20076;-70
2022/02/15 07:37:25;;;;;;;35.92;23.48;;;6.70;99.90;;;;;;5174492;27;20053;-68
2022/02/15 07:39:52;;;;;;;36.13;23.20;;;6.70;99.90;;;;;;5173621;27;20049;-72
2022/02/15 07:42:20;;;;;;;40.42;23.85;;;6.70;99.90;;;;;;5174227;27;20372;-69
2022/02/15 07:44:47;;;;;;;38.00;24.08;;;6.50;99.90;;;;;;5174757;27;20035;-70
2022/02/15 07:47:15;;;;;;;45.13;23.27;;;6.80;99.90;;;;;;5163696;27;20046;-70
2022/02/15 07:49:42;;;;;;;45.15;24.17;;;6.80;99.90;;;;;;5153758;27;20364;-68
2022/02/15 07:52:10;;;;;;;36.17;23.17;;;6.90;99.90;;;;;;5165358;27;20073;-70
2022/02/15 07:54:40;;;;;;;37.97;24.05;;;6.90;99.90;;;;;;5174216;27;20050;-71
2022/02/15 07:57:07;;;;;;;306.45;102.30;;;6.70;99.90;;;;;;5174453;27;20125;-70
2022/02/15 07:59:34;;;;;;;294.65;94.30;;;6.50;99.90;;;;;;5174243;27;20042;-70
2022/02/15 08:02:01;;;;;;;36.78;21.48;;;6.50;99.90;;;;;;5155759;27;20050;-72
2022/02/15 08:04:29;;;;;;;45.83;25.42;;;6.50;99.90;;;;;;5174034;27;20057;-72
2022/02/15 08:06:56;;;;;;;49.42;27.25;;;6.60;99.90;;;;;;5156348;27;20034;-72
2022/02/15 08:09:24;;;;;;;45.22;27.90;;;6.70;99.90;;;;;;5173981;27;20052;-70
2022/02/15 08:11:57;;;;;;;42.20;23.80;;;6.60;99.90;;;;;;5174381;27;20190;-74
2022/02/15 08:14:25;;;;;;;55.72;30.35;;;6.50;99.90;;;;;;5173404;27;20056;-74
2022/02/15 08:16:53;;;;;;;50.92;29.75;;;6.70;99.90;;;;;;5164981;27;20046;-73
2022/02/15 08:19:26;;;;;;;41.28;25.50;;;6.70;99.90;;;;;;5153135;27;20039;-70
2022/02/15 08:21:56;;;;;;;38.35;25.13;;;6.80;99.90;;;;;;5153357;27;20045;-70
2022/02/15 08:24:26;;;;;;;41.75;24.48;;;7.00;99.90;;;;;;5152397;27;20031;-72
2022/02/15 08:26:53;;;;;;;40.35;23.75;;;7.20;99.90;;;;;;5134245;27;20046;-75
2022/02/15 08:29:21;;;;;;;43.03;24.17;;;7.20;99.90;;;;;;5152691;27;20412;-76
2022/02/15 08:31:49;;;;;;;39.42;25.63;;;7.20;99.90;;;;;;5157174;27;20513;-69
2022/02/15 08:34:16;;;;;;;37.55;24.10;;;7.30;99.90;;;;;;5168102;27;20428;-70
2022/02/15 08:36:44;;;;;;;36.83;23.08;;;7.30;99.90;;;;;;5173283;27;20053;-70
2022/02/15 08:39:11;;;;;;;35.03;22.92;;;7.40;99.90;;;;;;5173447;27;20049;-75
2022/02/15 08:41:39;;;;;;;36.03;24.05;;;7.50;99.90;;;;;;5173822;27;20040;-72
2022/02/15 08:44:06;;;;;;;47.20;24.65;;;7.20;99.90;;;;;;5173503;27;20121;-75
2022/02/15 08:46:34;;;;;;;42.10;23.50;;;7.20;99.90;;;;;;5173616;27;20406;-75
2022/02/15 08:49:01;;;;;;;44.97;25.25;;;7.50;99.90;;;;;;5173776;27;20390;-71
2022/02/15 08:51:28;;;;;;;43.75;24.15;;;7.50;99.90;;;;;;5154585;27;20046;-77
2022/02/15 08:53:56;;;;;;;41.67;24.35;;;7.50;99.90;;;;;;5173286;27;20038;-80
2022/02/15 08:56:23;;;;;;;43.72;26.45;;;7.50;99.90;;;;;;5174059;27;20062;-73
2022/02/15 08:58:50;;;;;;;47.70;27.45;;;7.60;99.90;;;;;;5155101;27;20427;-78
2022/02/15 09:01:18;;;;;;;44.00;26.02;;;7.70;99.90;;;;;;5173240;27;20045;-71
2022/02/15 09:03:46;;;;;;;43.05;25.48;;;7.80;99.90;;;;;;5173245;27;20058;-77
2022/02/15 09:06:13;;;;;;;45.40;25.75;;;7.80;99.90;;;;;;5173700;27;20035;-70
2022/02/15 09:08:40;;;;;;;141.65;57.60;;;7.80;99.90;;;;;;5173373;27;20506;-73
2022/02/15 09:11:08;;;;;;;44.65;26.58;;;8.00;99.90;;;;;;5173784;27;20031;-76
2022/02/15 09:13:35;;;;;;;41.55;25.25;;;8.10;99.90;;;;;;5173071;27;20042;-69
2022/02/15 09:16:02;;;;;;;30.13;19.63;;;8.20;99.90;;;;;;5172519;27;20038;-74
2022/02/15 09:18:29;;;;;;;26.08;16.83;;;8.10;99.90;;;;;;5172909;27;20042;-71
2022/02/15 09:20:57;;;;;;;31.65;17.13;;;8.10;99.90;;;;;;5172975;27;20034;-77
2022/02/15 09:23:24;;;;;;;25.58;16.40;;;8.40;99.90;;;;;;5173048;27;20384;-69
2022/02/15 09:25:53;;;;;;;30.80;17.13;;;8.40;99.90;;;;;;5173545;27;20038;-71
2022/02/15 09:28:20;;;;;;;24.40;16.70;;;8.50;99.90;;;;;;5177729;27;20680;-72
2022/02/15 09:30:54;;;;;;;23.02;14.70;;;8.60;99.90;;;;;;5177847;27;20655;-69
2022/02/15 09:33:22;;;;;;;209.77;80.53;;;8.70;99.90;;;;;;5176984;27;20042;-72
2022/02/15 09:36:10;;;;;;;24.08;16.02;;;8.90;99.90;;;;;;5177241;27;20038;-74
2022/02/15 09:38:37;;;;;;;184.90;113.00;;;9.10;99.90;;;;;;5177248;27;20047;-70
2022/02/15 09:41:07;;;;;;;27.30;16.63;;;9.10;99.90;;;;;;5177511;27;20034;-73
2022/02/15 09:43:38;;;;;;;24.48;14.60;;;9.10;99.90;;;;;;5177356;27;20042;-70
2022/02/15 09:46:14;;;;;;;23.50;14.45;;;8.90;99.90;;;;;;5177004;27;20039;-71
2022/02/15 09:48:43;;;;;;;23.80;15.10;;;8.90;99.90;;;;;;5177070;27;20054;-71
2022/02/15 09:51:12;;;;;;;22.10;14.00;;;9.00;99.90;;;;;;5176176;27;20030;-71
2022/02/15 09:53:40;;;;;;;20.48;13.50;;;9.10;99.90;;;;;;5176293;27;20035;-72
2022/02/15 09:56:07;;;;;;;21.58;12.85;;;9.10;99.90;;;;;;5177014;27;20065;-70
2022/02/15 09:58:34;;;;;;;16.92;11.43;;;9.20;99.90;;;;;;5158265;27;20761;-71
2022/02/15 10:01:05;;;;;;;18.38;12.85;;;9.00;99.90;;;;;;5174776;27;20082;-70
2022/02/15 10:03:33;;;;;;;21.52;13.07;;;9.10;99.90;;;;;;5152243;27;20114;-70
2022/02/15 10:06:02;;;;;;;19.52;13.40;;;9.20;99.90;;;;;;5137572;27;20051;-74
2022/02/15 10:08:31;;;;;;;20.02;13.55;;;8.90;99.90;;;;;;5155903;27;20050;-70
2022/02/15 10:11:14;;;;;;;22.27;14.90;;;9.20;99.90;;;;;;5155893;27;20047;-70
2022/02/15 10:13:42;;;;;;;21.23;14.38;;;9.60;99.90;;;;;;5155779;27;20043;-74
2022/02/15 10:16:10;;;;;;;20.25;13.82;;;9.80;99.90;;;;;;5138837;27;20039;-69
2022/02/15 10:18:37;;;;;;;22.13;13.93;;;9.80;99.90;;;;;;5176410;27;20038;-78
2022/02/15 10:21:05;;;;;;;25.27;14.10;;;9.80;99.90;;;;;;5157865;27;20045;-69
2022/02/15 10:23:36;;;;;;;23.42;13.35;;;9.40;99.90;;;;;;5176699;27;20050;-70
2022/02/15 10:26:07;;;;;;;21.15;13.57;;;9.50;99.90;;;;;;5176361;27;20395;-72
2022/02/15 10:28:35;;;;;;;23.40;15.35;;;9.90;99.90;;;;;;5176317;27;20050;-71
2022/02/15 10:31:04;;;;;;;24.13;17.02;;;10.50;99.90;;;;;;5160726;27;20054;-73
2022/02/15 10:33:34;;;;;;;26.17;16.33;;;10.20;99.90;;;;;;5169423;27;20046;-74
2022/02/15 10:36:04;;;;;;;26.75;18.05;;;9.80;99.90;;;;;;5175978;27;20498;-73
2022/02/15 10:38:35;;;;;;;19.83;13.90;;;9.30;99.90;;;;;;5167357;27;20041;-71
2022/02/15 10:41:05;;;;;;;22.15;14.57;;;9.20;99.90;;;;;;5174201;27;20042;-70
2022/02/15 10:43:43;;;;;;;22.98;14.45;;;9.50;99.90;;;;;;5157365;27;20059;-70
2022/02/15 10:46:16;;;;;;;19.17;13.60;;;10.10;99.90;;;;;;5175939;27;20034;-74
2022/02/15 10:48:44;;;;;;;19.95;12.70;;;10.30;99.90;;;;;;5176219;27;20046;-71
2022/02/15 10:51:12;;;;;;;21.00;14.55;;;10.50;99.90;;;;;;5174913;27;20034;-71
2022/02/15 10:53:57;;;;;;;24.27;13.52;;;10.90;99.90;;;;;;5173318;27;20082;-70
2022/02/15 10:56:32;;;;;;;225.35;149.27;;;10.40;99.90;;;;;;5145096;27;20042;-70
2022/02/15 10:59:03;;;;;;;185.60;144.48;;;10.00;99.90;;;;;;5175755;27;20437;-70
2022/02/15 11:01:33;;;;;;;24.60;13.65;;;10.00;99.90;;;;;;5156691;27;20065;-75
2022/02/15 11:04:03;;;;;;;90.53;82.78;;;10.10;99.90;;;;;;5173418;27;20440;-69
2022/02/15 11:06:31;;;;;;;29.05;16.33;;;10.70;99.90;;;;;;5160190;27;20117;-74
2022/02/15 11:09:04;;;;;;;334.73;166.18;;;11.30;99.90;;;;;;5168182;27;20045;-71
2022/02/15 11:11:50;;;;;;;184.60;108.72;;;12.00;99.90;;;;;;5162315;27;20049;-73
2022/02/15 11:14:18;;;;;;;214.77;168.77;;;12.00;99.90;;;;;;5169787;27;20544;-71
2022/02/15 11:16:50;;;;;;;329.55;175.68;;;12.00;99.90;;;;;;5171603;27;20724;-70
2022/02/15 11:19:37;;;;;;;31.73;22.80;;;12.60;99.20;;;;;;5170176;27;20380;-69
2022/02/15 11:22:15;;;;;;;22.20;14.48;;;12.60;98.30;;;;;;5172651;27;20057;-70
2022/02/15 11:24:43;;;;;;;27.67;17.58;;;11.70;99.90;;;;;;5156800;27;20053;-71
2022/02/15 11:27:32;;;;;;;40.22;34.05;;;12.40;99.90;;;;;;5174985;27;20034;-73
2022/02/15 11:30:01;;;;;;;28.83;17.25;;;12.40;98.60;;;;;;5174347;27;20038;-71
2022/02/15 11:32:33;;;;;;;26.10;17.20;;;11.70;99.90;;;;;;5174454;27;20080;-72
2022/02/15 11:35:14;;;;;;;29.70;18.02;;;11.70;99.90;;;;;;5174790;27;20042;-73
2022/02/15 11:37:41;;;;;;;27.98;17.98;;;11.70;99.90;;;;;;5172204;27;20506;-72
2022/02/15 11:40:14;;;;;;;27.70;17.42;;;11.90;99.90;;;;;;5169825;27;20506;-72
2022/02/15 11:42:47;;;;;;;22.20;15.45;;;11.70;99.90;;;;;;5167620;27;20410;-71
2022/02/15 11:45:15;;;;;;;22.50;15.27;;;11.80;99.90;;;;;;5122486;27;20496;-72
2022/02/15 11:47:46;;;;;;;26.20;15.40;;;11.60;99.90;;;;;;5124458;27;20485;-71
2022/02/15 11:50:16;;;;;;;25.45;14.77;;;12.00;99.90;;;;;;5154124;27;20494;-72
2022/02/15 11:52:44;;;;;;;28.95;15.80;;;11.60;99.90;;;;;;5172336;27;20042;-71
2022/02/15 11:55:16;;;;;;;348.85;165.38;;;12.10;99.90;;;;;;5174620;27;20050;-71
2022/02/15 11:57:47;;;;;;;27.75;15.82;;;12.20;99.70;;;;;;5174288;27;20045;-71
2022/02/15 12:00:15;;;;;;;32.17;16.73;;;12.00;99.50;;;;;;5168705;27;20050;-72
2022/02/15 12:02:53;;;;;;;28.25;18.10;;;12.50;98.80;;;;;;5152781;27;20053;-72
2022/02/15 12:05:32;;;;;;;29.85;16.48;;;13.00;97.30;;;;;;5153671;27;20407;-73
2022/02/15 12:07:59;;;;;;;360.27;179.52;;;13.00;97.00;;;;;;5152211;27;20038;-71
2022/02/15 12:10:37;;;;;;;352.30;182.70;;;12.70;97.00;;;;;;5152827;27;20039;-72
2022/02/15 12:13:12;;;;;;;352.30;181.25;;;13.30;95.70;;;;;;5153189;27;20039;-73
2022/02/15 12:15:39;;;;;;;357.45;185.48;;;13.00;96.10;;;;;;5161783;27;20849;-72
2022/02/15 12:18:08;;;;;;;204.13;183.40;;;14.00;94.60;;;;;;5173241;27;20038;-71
2022/02/15 12:20:36;;;;;;;352.23;202.30;;;13.80;92.50;;;;;;5155200;27;20050;-72
2022/02/15 12:23:03;;;;;;;362.70;210.93;;;14.60;92.90;;;;;;5155679;27;20407;-72
2022/02/15 12:25:31;;;;;;;360.45;216.95;;;15.50;88.10;;;;;;5174259;27;20053;-73
2022/02/15 12:28:03;;;;;;;363.23;215.48;;;16.20;83.00;;;;;;5173763;27;20034;-72
2022/02/15 12:30:31;;;;;;;366.73;245.00;;;16.30;79.70;;;;;;5173222;27;20042;-73
2022/02/15 12:32:58;;;;;;;392.17;298.83;;;16.90;77.30;;;;;;5174166;27;20086;-73
2022/02/15 12:35:27;;;;;;;374.88;324.55;;;17.10;75.00;;;;;;5174075;27;20483;-73
2022/02/15 12:37:59;;;;;;;28.50;14.20;;;17.20;71.90;;;;;;5174178;27;20050;-74
2022/02/15 12:40:27;;;;;;;370.15;258.70;;;15.70;76.50;;;;;;5174167;27;20049;-73
2022/02/15 12:42:55;;;;;;;26.60;16.92;;;15.60;78.10;;;;;;5173605;27;20041;-73
2022/02/15 12:45:24;;;;;;;23.33;15.18;;;15.40;79.50;;;;;;5173289;27;20038;-73